sensor_id;sensor_type;location;lat;lon;timestamp;pressure;altitude;pressure_sealevel;temperature;humidity
49040;BME280;36811;49.732;13.402;2023-02-19T00:01:22;97982.28;;;9.72;82.91
49040;BME280;36811;49.732;13.402;2023-02-19T00:03:57;97979.38;;;9.74;82.63
49040;BME280;36811;49.732;13.402;2023-02-19T00:06:25;97969.81;;;9.73;82.88
49040;BME280;36811;49.732;13.402;2023-02-19T00:08:51;97972.94;;;9.70;82.53
49040;BME280;36811;49.732;13.402;2023-02-19T00:11:20;97967.81;;;9.63;83.08
49040;BME280;36811;49.732;13.402;2023-02-19T00:13:48;97966.53;;;9.66;82.83
49040;BME280;36811;49.732;13.402;2023-02-19T00:16:17;97967.00;;;9.63;82.80
49040;BME280;36811;49.732;13.402;2023-02-19T00:18:44;97964.59;;;9.61;82.89
49040;BME280;36811;49.732;13.402;2023-02-19T00:21:11;97963.31;;;9.64;83.25
49040;BME280;36811;49.732;13.402;2023-02-19T00:23:37;97952.38;;;9.60;82.81
49040;BME280;36811;49.732;13.402;2023-02-19T00:26:11;97948.09;;;9.59;83.12
49040;BME280;36811;49.732;13.402;2023-02-19T00:28:38;97947.78;;;9.55;82.47
49040;BME280;36811;49.732;13.402;2023-02-19T00:31:06;97929.69;;;9.52;82.83
49040;BME280;36811;49.732;13.402;2023-02-19T00:33:33;97936.28;;;9.50;83.23
49040;BME280;36811;49.732;13.402;2023-02-19T00:36:02;97933.09;;;9.48;83.69
49040;BME280;36811;49.732;13.402;2023-02-19T00:38:29;97948.69;;;9.44;83.46
49040;BME280;36811;49.732;13.402;2023-02-19T00:40:54;97945.22;;;9.44;83.80
49040;BME280;36811;49.732;13.402;2023-02-19T00:43:20;97954.72;;;9.40;84.37
49040;BME280;36811;49.732;13.402;2023-02-19T00:45:46;97939.22;;;9.32;85.14
49040;BME280;36811;49.732;13.402;2023-02-19T00:48:11;97949.84;;;9.32;85.06
49040;BME280;36811;49.732;13.402;2023-02-19T00:50:37;97954.66;;;9.35;85.12
49040;BME280;36811;49.732;13.402;2023-02-19T00:53:02;97951.44;;;9.33;84.82
49040;BME280;36811;49.732;13.402;2023-02-19T00:55:28;97951.94;;;9.30;84.99
49040;BME280;36811;49.732;13.402;2023-02-19T00:57:53;97954.09;;;9.33;85.17
49040;BME280;36811;49.732;13.402;2023-02-19T01:00:19;97943.56;;;9.38;84.62
49040;BME280;36811;49.732;13.402;2023-02-19T01:02:45;97939.34;;;9.42;85.04
49040;BME280;36811;49.732;13.402;2023-02-19T01:05:10;97935.66;;;9.43;84.81
49040;BME280;36811;49.732;13.402;2023-02-19T01:07:36;97919.19;;;9.41;84.36
49040;BME280;36811;49.732;13.402;2023-02-19T01:10:03;97918.13;;;9.42;84.44
49040;BME280;36811;49.732;13.402;2023-02-19T01:12:29;97921.31;;;9.44;84.25
49040;BME280;36811;49.732;13.402;2023-02-19T01:14:56;97921.03;;;9.40;84.01
49040;BME280;36811;49.732;13.402;2023-02-19T01:17:22;97921.31;;;9.44;83.72
49040;BME280;36811;49.732;13.402;2023-02-19T01:19:48;97911.84;;;9.48;83.98
49040;BME280;36811;49.732;13.402;2023-02-19T01:22:13;97908.38;;;9.47;83.81
49040;BME280;36811;49.732;13.402;2023-02-19T01:24:39;97904.38;;;9.45;83.57
49040;BME280;36811;49.732;13.402;2023-02-19T01:27:04;97906.53;;;9.48;83.55
49040;BME280;36811;49.732;13.402;2023-02-19T01:29:30;97906.75;;;9.46;83.38
49040;BME280;36811;49.732;13.402;2023-02-19T01:31:56;97881.75;;;9.42;83.29
49040;BME280;36811;49.732;13.402;2023-02-19T01:34:21;97900.69;;;9.46;83.21
49040;BME280;36811;49.732;13.402;2023-02-19T01:36:47;97893.50;;;9.46;82.66
49040;BME280;36811;49.732;13.402;2023-02-19T01:39:12;97887.41;;;9.46;83.30
49040;BME280;36811;49.732;13.402;2023-02-19T01:41:40;97885.59;;;9.51;82.53
49040;BME280;36811;49.732;13.402;2023-02-19T01:46:35;97874.53;;;9.59;82.29
49040;BME280;36811;49.732;13.402;2023-02-19T01:49:06;97867.94;;;9.62;81.58
49040;BME280;36811;49.732;13.402;2023-02-19T01:51:35;97862.13;;;9.65;81.56
49040;BME280;36811;49.732;13.402;2023-02-19T01:54:04;97858.19;;;9.68;81.18
49040;BME280;36811;49.732;13.402;2023-02-19T01:56:33;97855.84;;;9.71;80.87
49040;BME280;36811;49.732;13.402;2023-02-19T01:59:01;97859.59;;;9.75;80.54
49040;BME280;36811;49.732;13.402;2023-02-19T02:01:27;97848.97;;;9.75;80.50
49040;BME280;36811;49.732;13.402;2023-02-19T02:03:52;97839.38;;;9.74;80.30
49040;BME280;36811;49.732;13.402;2023-02-19T02:06:51;97825.34;;;9.74;79.97
49040;BME280;36811;49.732;13.402;2023-02-19T02:09:19;97825.34;;;9.74;79.89
49040;BME280;36811;49.732;13.402;2023-02-19T02:12:04;97825.50;;;9.67;79.95
49040;BME280;36811;49.732;13.402;2023-02-19T02:14:33;97823.59;;;9.63;80.27
49040;BME280;36811;49.732;13.402;2023-02-19T02:28:16;97810.81;;;9.59;79.54
49040;BME280;36811;49.732;13.402;2023-02-19T02:30:49;97802.84;;;9.59;79.58
49040;BME280;36811;49.732;13.402;2023-02-19T02:35:56;97785.97;;;9.71;79.12
49040;BME280;36811;49.732;13.402;2023-02-19T02:38:26;97785.19;;;9.70;78.62
49040;BME280;36811;49.732;13.402;2023-02-19T02:40:54;97774.81;;;9.69;78.67
49040;BME280;36811;49.732;13.402;2023-02-19T02:43:20;97772.16;;;9.69;78.46
49040;BME280;36811;49.732;13.402;2023-02-19T02:45:46;97769.25;;;9.70;78.44
49040;BME280;36811;49.732;13.402;2023-02-19T02:56:43;97764.56;;;9.82;78.23
49040;BME280;36811;49.732;13.402;2023-02-19T02:59:13;97768.34;;;9.86;77.77
49040;BME280;36811;49.732;13.402;2023-02-19T03:04:44;97762.78;;;9.88;77.75
49040;BME280;36811;49.732;13.402;2023-02-19T03:07:37;97742.34;;;9.88;77.28
49040;BME280;36811;49.732;13.402;2023-02-19T03:10:06;97743.38;;;9.87;77.48
49040;BME280;36811;49.732;13.402;2023-02-19T03:12:33;97737.56;;;9.90;77.57
49040;BME280;36811;49.732;13.402;2023-02-19T03:15:18;97729.09;;;9.93;77.42
49040;BME280;36811;49.732;13.402;2023-02-19T03:18:06;97728.59;;;9.96;77.29
49040;BME280;36811;49.732;13.402;2023-02-19T03:20:54;97729.09;;;9.93;77.16
49040;BME280;36811;49.732;13.402;2023-02-19T03:23:25;97723.75;;;9.88;77.85
49040;BME280;36811;49.732;13.402;2023-02-19T03:26:13;97733.59;;;9.93;77.48
49040;BME280;36811;49.732;13.402;2023-02-19T03:28:41;97720.84;;;9.95;77.35
49040;BME280;36811;49.732;13.402;2023-02-19T03:31:28;97718.47;;;9.93;77.70
49040;BME280;36811;49.732;13.402;2023-02-19T03:33:58;97708.66;;;9.94;77.68
49040;BME280;36811;49.732;13.402;2023-02-19T03:36:34;97703.88;;;9.96;77.30
49040;BME280;36811;49.732;13.402;2023-02-19T03:39:08;97700.16;;;9.97;77.69
49040;BME280;36811;49.732;13.402;2023-02-19T03:44:44;97701.72;;;9.93;77.90
49040;BME280;36811;49.732;13.402;2023-02-19T03:47:24;97700.41;;;9.95;78.46
49040;BME280;36811;49.732;13.402;2023-02-19T03:50:12;97683.88;;;9.88;78.78
49040;BME280;36811;49.732;13.402;2023-02-19T03:58:40;97704.50;;;9.76;79.96
49040;BME280;36811;49.732;13.402;2023-02-19T04:01:26;97695.69;;;9.71;80.24
49040;BME280;36811;49.732;13.402;2023-02-19T04:04:07;97683.72;;;9.68;80.13
49040;BME280;36811;49.732;13.402;2023-02-19T04:06:35;97686.06;;;9.65;80.49
49040;BME280;36811;49.732;13.402;2023-02-19T04:09:05;97682.59;;;9.64;80.52
49040;BME280;36811;49.732;13.402;2023-02-19T04:11:35;97680.47;;;9.61;81.15
49040;BME280;36811;49.732;13.402;2023-02-19T04:14:09;97676.47;;;9.58;81.57
49040;BME280;36811;49.732;13.402;2023-02-19T04:16:40;97688.38;;;9.56;81.75
49040;BME280;36811;49.732;13.402;2023-02-19T04:19:11;97687.53;;;9.50;81.69
49040;BME280;36811;49.732;13.402;2023-02-19T04:21:39;97683.78;;;9.51;82.28
49040;BME280;36811;49.732;13.402;2023-02-19T04:24:13;97682.72;;;9.47;82.43
49040;BME280;36811;49.732;13.402;2023-02-19T04:26:40;97683.75;;;9.46;82.58
49040;BME280;36811;49.732;13.402;2023-02-19T04:29:06;97672.31;;;9.41;82.83
49040;BME280;36811;49.732;13.402;2023-02-19T04:31:33;97672.03;;;9.42;83.58
49040;BME280;36811;49.732;13.402;2023-02-19T04:34:01;97682.41;;;9.44;83.34
49040;BME280;36811;49.732;13.402;2023-02-19T04:36:29;97670.44;;;9.41;83.28
49040;BME280;36811;49.732;13.402;2023-02-19T04:38:56;97681.81;;;9.37;84.05
49040;BME280;36811;49.732;13.402;2023-02-19T04:41:22;97681.31;;;9.40;83.90
49040;BME280;36811;49.732;13.402;2023-02-19T04:43:47;97669.06;;;9.39;84.24
49040;BME280;36811;49.732;13.402;2023-02-19T04:46:13;97675.13;;;9.34;84.86
49040;BME280;36811;49.732;13.402;2023-02-19T04:48:39;97672.69;;;9.28;84.59
49040;BME280;36811;49.732;13.402;2023-02-19T04:51:08;97678.44;;;9.20;85.42
49040;BME280;36811;49.732;13.402;2023-02-19T04:53:35;97678.44;;;9.20;85.56
49040;BME280;36811;49.732;13.402;2023-02-19T04:56:09;97673.94;;;9.20;84.99
49040;BME280;36811;49.732;13.402;2023-02-19T04:58:35;97680.59;;;9.23;85.13
49040;BME280;36811;49.732;13.402;2023-02-19T05:01:01;97674.97;;;9.19;85.64
49040;BME280;36811;49.732;13.402;2023-02-19T05:03:27;97690.63;;;9.16;85.48
49040;BME280;36811;49.732;13.402;2023-02-19T05:05:53;97684.78;;;9.19;85.21
49040;BME280;36811;49.732;13.402;2023-02-19T05:08:18;97690.72;;;9.26;85.21
49040;BME280;36811;49.732;13.402;2023-02-19T05:10:44;97695.50;;;9.29;84.79
49040;BME280;36811;49.732;13.402;2023-02-19T05:13:10;97686.50;;;9.30;84.57
49040;BME280;36811;49.732;13.402;2023-02-19T05:15:36;97679.31;;;9.25;84.83
49040;BME280;36811;49.732;13.402;2023-02-19T05:18:02;97685.41;;;9.26;84.72
49040;BME280;36811;49.732;13.402;2023-02-19T05:20:28;97682.00;;;9.30;84.36
49040;BME280;36811;49.732;13.402;2023-02-19T05:22:53;97683.91;;;9.35;84.43
49040;BME280;36811;49.732;13.402;2023-02-19T05:25:19;97676.44;;;9.32;84.31
49040;BME280;36811;49.732;13.402;2023-02-19T05:27:44;97671.69;;;9.34;84.39
49040;BME280;36811;49.732;13.402;2023-02-19T05:30:11;97679.41;;;9.35;84.32
49040;BME280;36811;49.732;13.402;2023-02-19T05:32:36;97683.09;;;9.34;83.64
49040;BME280;36811;49.732;13.402;2023-02-19T05:35:02;97691.31;;;9.33;83.71
49040;BME280;36811;49.732;13.402;2023-02-19T05:37:28;97681.81;;;9.37;83.43
49040;BME280;36811;49.732;13.402;2023-02-19T05:39:54;97693.00;;;9.44;83.21
49040;BME280;36811;49.732;13.402;2023-02-19T05:42:19;97691.16;;;9.44;83.55
49040;BME280;36811;49.732;13.402;2023-02-19T05:44:45;97684.56;;;9.47;83.18
49040;BME280;36811;49.732;13.402;2023-02-19T05:47:10;97697.59;;;9.48;82.84
49040;BME280;36811;49.732;13.402;2023-02-19T05:49:36;97700.25;;;9.48;83.21
49040;BME280;36811;49.732;13.402;2023-02-19T05:52:02;97698.94;;;9.51;82.78
49040;BME280;36811;49.732;13.402;2023-02-19T05:54:29;97703.75;;;9.54;82.63
49040;BME280;36811;49.732;13.402;2023-02-19T05:56:55;97721.84;;;9.57;82.20
49040;BME280;36811;49.732;13.402;2023-02-19T05:59:22;97716.53;;;9.57;81.98
49040;BME280;36811;49.732;13.402;2023-02-19T06:01:50;97713.91;;;9.62;80.98
49040;BME280;36811;49.732;13.402;2023-02-19T06:04:18;97712.88;;;9.63;81.57
49040;BME280;36811;49.732;13.402;2023-02-19T06:06:45;97722.19;;;9.66;81.05
49040;BME280;36811;49.732;13.402;2023-02-19T06:09:12;97717.69;;;9.66;81.08
49040;BME280;36811;49.732;13.402;2023-02-19T06:11:38;97720.34;;;9.66;80.61
49040;BME280;36811;49.732;13.402;2023-02-19T06:14:05;97719.78;;;9.64;81.16
49040;BME280;36811;49.732;13.402;2023-02-19T06:16:31;97725.09;;;9.64;80.91
49040;BME280;36811;49.732;13.402;2023-02-19T06:19:00;97717.69;;;9.66;80.29
49040;BME280;36811;49.732;13.402;2023-02-19T06:21:26;97710.28;;;9.68;80.56
49040;BME280;36811;49.732;13.402;2023-02-19T06:23:51;97711.06;;;9.69;80.38
49040;BME280;36811;49.732;13.402;2023-02-19T06:26:22;97704.97;;;9.68;80.53
49040;BME280;36811;49.732;13.402;2023-02-19T06:28:50;97706.75;;;9.63;79.99
49040;BME280;36811;49.732;13.402;2023-02-19T06:31:18;97704.59;;;9.59;80.95
49040;BME280;36811;49.732;13.402;2023-02-19T06:33:44;97710.44;;;9.62;80.40
49040;BME280;36811;49.732;13.402;2023-02-19T06:36:13;97722.69;;;9.63;80.08
49040;BME280;36811;49.732;13.402;2023-02-19T06:38:39;97724.59;;;9.67;80.16
49040;BME280;36811;49.732;13.402;2023-02-19T06:41:06;97719.59;;;9.71;80.22
49040;BME280;36811;49.732;13.402;2023-02-19T06:43:33;97723.59;;;9.73;80.08
49040;BME280;36811;49.732;13.402;2023-02-19T06:46:00;97701.13;;;9.86;79.65
49040;BME280;36811;49.732;13.402;2023-02-19T06:48:27;97721.03;;;9.83;79.56
49040;BME280;36811;49.732;13.402;2023-02-19T06:50:53;97727.38;;;9.82;80.12
49040;BME280;36811;49.732;13.402;2023-02-19T06:53:19;97733.81;;;9.86;79.37
49040;BME280;36811;49.732;13.402;2023-02-19T06:55:58;97729.84;;;9.89;79.49
49040;BME280;36811;49.732;13.402;2023-02-19T06:58:24;97738.88;;;9.88;79.28
49040;BME280;36811;49.732;13.402;2023-02-19T07:00:52;97737.81;;;9.89;79.28
49040;BME280;36811;49.732;13.402;2023-02-19T07:03:18;97745.00;;;9.88;78.82
49040;BME280;36811;49.732;13.402;2023-02-19T07:05:44;97747.69;;;9.93;79.01
49040;BME280;36811;49.732;13.402;2023-02-19T07:08:10;97750.63;;;9.97;78.46
49040;BME280;36811;49.732;13.402;2023-02-19T07:10:35;97750.94;;;10.00;78.65
49040;BME280;36811;49.732;13.402;2023-02-19T07:13:01;97760.75;;;10.00;78.35
49040;BME280;36811;49.732;13.402;2023-02-19T07:15:27;97762.56;;;9.94;78.50
49040;BME280;36811;49.732;13.402;2023-02-19T07:17:52;97762.06;;;9.97;78.30
49040;BME280;36811;49.732;13.402;2023-02-19T07:20:18;97768.19;;;9.98;78.59
49040;BME280;36811;49.732;13.402;2023-02-19T07:22:43;97768.44;;;9.96;78.53
49040;BME280;36811;49.732;13.402;2023-02-19T07:25:09;97768.94;;;9.93;78.49
49040;BME280;36811;49.732;13.402;2023-02-19T07:27:34;97782.50;;;9.97;78.33
49040;BME280;36811;49.732;13.402;2023-02-19T07:30:00;97771.34;;;9.95;78.12
49040;BME280;36811;49.732;13.402;2023-02-19T07:32:26;97779.03;;;9.91;78.25
49040;BME280;36811;49.732;13.402;2023-02-19T07:34:52;97779.63;;;9.98;78.13
49040;BME280;36811;49.732;13.402;2023-02-19T07:37:18;97777.25;;;10.02;77.61
49040;BME280;36811;49.732;13.402;2023-02-19T07:39:43;97786.56;;;10.04;78.20
49040;BME280;36811;49.732;13.402;2023-02-19T07:42:09;97791.66;;;10.06;77.94
49040;BME280;36811;49.732;13.402;2023-02-19T07:44:35;97793.56;;;10.10;77.95
49040;BME280;36811;49.732;13.402;2023-02-19T07:47:00;97801.47;;;10.05;77.89
49040;BME280;36811;49.732;13.402;2023-02-19T07:49:26;97798.41;;;10.13;77.74
49040;BME280;36811;49.732;13.402;2023-02-19T07:51:51;97807.41;;;10.12;77.48
49040;BME280;36811;49.732;13.402;2023-02-19T07:54:17;97811.59;;;10.08;77.47
49040;BME280;36811;49.732;13.402;2023-02-19T07:56:42;97817.56;;;10.15;77.14
49040;BME280;36811;49.732;13.402;2023-02-19T07:59:08;97823.41;;;10.17;77.16
49040;BME280;36811;49.732;13.402;2023-02-19T08:01:35;97824.53;;;10.22;77.05
49040;BME280;36811;49.732;13.402;2023-02-19T08:04:19;97826.72;;;10.30;76.90
49040;BME280;36811;49.732;13.402;2023-02-19T08:06:44;97810.22;;;10.28;77.31
49040;BME280;36811;49.732;13.402;2023-02-19T08:09:10;97812.88;;;10.28;76.66
49040;BME280;36811;49.732;13.402;2023-02-19T08:11:36;97816.59;;;10.27;76.98
49040;BME280;36811;49.732;13.402;2023-02-19T08:14:26;97807.00;;;10.26;77.24
49040;BME280;36811;49.732;13.402;2023-02-19T08:16:52;97812.81;;;10.23;77.13
49040;BME280;36811;49.732;13.402;2023-02-19T08:19:18;97804.81;;;10.17;77.13
49040;BME280;36811;49.732;13.402;2023-02-19T08:21:44;97803.72;;;10.13;77.48
49040;BME280;36811;49.732;13.402;2023-02-19T08:24:11;97810.38;;;10.16;77.55
49040;BME280;36811;49.732;13.402;2023-02-19T08:26:37;97807.88;;;10.09;78.05
49040;BME280;36811;49.732;13.402;2023-02-19T08:29:04;97810.06;;;10.12;77.92
49040;BME280;36811;49.732;13.402;2023-02-19T08:31:30;97812.28;;;10.20;77.65
49040;BME280;36811;49.732;13.402;2023-02-19T08:33:56;97816.03;;;10.25;77.24
49040;BME280;36811;49.732;13.402;2023-02-19T08:36:22;97813.38;;;10.25;77.12
49040;BME280;36811;49.732;13.402;2023-02-19T08:38:48;97823.50;;;10.28;77.35
49040;BME280;36811;49.732;13.402;2023-02-19T08:41:13;97821.88;;;10.22;77.02
49040;BME280;36811;49.732;13.402;2023-02-19T08:43:40;97815.75;;;10.21;77.30
49040;BME280;36811;49.732;13.402;2023-02-19T08:46:08;97818.19;;;10.28;76.95
49040;BME280;36811;49.732;13.402;2023-02-19T08:48:35;97821.97;;;10.32;76.84
49040;BME280;36811;49.732;13.402;2023-02-19T08:51:04;97815.03;;;10.31;77.04
49040;BME280;36811;49.732;13.402;2023-02-19T08:53:34;97806.50;;;10.29;76.52
49040;BME280;36811;49.732;13.402;2023-02-19T08:56:13;97826.63;;;10.19;77.02
49040;BME280;36811;49.732;13.402;2023-02-19T08:58:40;97823.97;;;10.19;76.76
49040;BME280;36811;49.732;13.402;2023-02-19T09:01:11;97823.41;;;10.17;76.66
49040;BME280;36811;49.732;13.402;2023-02-19T09:03:37;97820.53;;;10.19;75.94
49040;BME280;36811;49.732;13.402;2023-02-19T09:06:03;97829.84;;;10.22;76.57
49040;BME280;36811;49.732;13.402;2023-02-19T09:08:29;97826.38;;;10.21;76.46
49040;BME280;36811;49.732;13.402;2023-02-19T09:10:59;97846.28;;;10.18;76.32
49040;BME280;36811;49.732;13.402;2023-02-19T09:13:24;97837.19;;;10.14;77.16
49040;BME280;36811;49.732;13.402;2023-02-19T09:15:50;97829.66;;;10.06;77.66
49040;BME280;36811;49.732;13.402;2023-02-19T09:18:15;97870.41;;;9.90;78.93
49040;BME280;36811;49.732;13.402;2023-02-19T09:20:41;97857.75;;;9.76;81.11
49040;BME280;36811;49.732;13.402;2023-02-19T09:23:06;97880.94;;;9.42;89.60
49040;BME280;36811;49.732;13.402;2023-02-19T09:25:32;97884.06;;;9.17;91.29
49040;BME280;36811;49.732;13.402;2023-02-19T09:27:58;97890.34;;;9.11;93.51
49040;BME280;36811;49.732;13.402;2023-02-19T09:30:24;97881.34;;;9.12;91.91
49040;BME280;36811;49.732;13.402;2023-02-19T09:32:49;97882.31;;;9.06;90.53
49040;BME280;36811;49.732;13.402;2023-02-19T09:35:15;97897.09;;;9.02;90.71
49040;BME280;36811;49.732;13.402;2023-02-19T09:37:41;97893.91;;;9.00;91.76
49040;BME280;36811;49.732;13.402;2023-02-19T09:40:08;97912.06;;;8.91;92.01
49040;BME280;36811;49.732;13.402;2023-02-19T09:42:34;97865.69;;;8.77;91.17
49040;BME280;36811;49.732;13.402;2023-02-19T09:45:00;97902.97;;;8.54;91.03
49040;BME280;36811;49.732;13.402;2023-02-19T09:47:30;97908.72;;;8.35;91.08
49040;BME280;36811;49.732;13.402;2023-02-19T09:50:11;97922.13;;;8.16;91.19
49040;BME280;36811;49.732;13.402;2023-02-19T09:52:45;97923.88;;;8.11;91.15
49040;BME280;36811;49.732;13.402;2023-02-19T09:57:47;97915.88;;;7.94;94.82
49040;BME280;36811;49.732;13.402;2023-02-19T10:00:24;97914.19;;;8.05;93.55
49040;BME280;36811;49.732;13.402;2023-02-19T10:03:01;97929.72;;;8.13;94.29
49040;BME280;36811;49.732;13.402;2023-02-19T10:05:29;97938.59;;;8.18;94.18
49040;BME280;36811;49.732;13.402;2023-02-19T10:07:56;97946.69;;;8.40;95.84
49040;BME280;36811;49.732;13.402;2023-02-19T10:10:32;97937.91;;;8.51;92.12
49040;BME280;36811;49.732;13.402;2023-02-19T10:14:02;97954.28;;;8.48;93.31
49040;BME280;36811;49.732;13.402;2023-02-19T10:16:05;97960.44;;;8.37;93.34
49040;BME280;36811;49.732;13.402;2023-02-19T10:18:42;97961.47;;;8.36;93.65
49040;BME280;36811;49.732;13.402;2023-02-19T10:21:18;97949.69;;;8.44;94.45
49040;BME280;36811;49.732;13.402;2023-02-19T10:23:47;97961.91;;;8.45;94.18
49040;BME280;36811;49.732;13.402;2023-02-19T10:26:14;97977.94;;;8.38;95.17
49040;BME280;36811;49.732;13.402;2023-02-19T10:28:40;97992.00;;;8.39;95.68
49040;BME280;36811;49.732;13.402;2023-02-19T10:31:17;97984.63;;;8.41;96.45
49040;BME280;36811;49.732;13.402;2023-02-19T10:33:56;97986.94;;;8.37;97.65
49040;BME280;36811;49.732;13.402;2023-02-19T10:36:31;97977.84;;;8.33;98.51
49040;BME280;36811;49.732;13.402;2023-02-19T10:38:58;97982.13;;;8.34;98.17
49040;BME280;36811;49.732;13.402;2023-02-19T10:41:26;97981.25;;;8.45;98.18
49040;BME280;36811;49.732;13.402;2023-02-19T10:44:06;97978.56;;;8.57;99.12
49040;BME280;36811;49.732;13.402;2023-02-19T10:46:41;97983.97;;;8.62;97.71
49040;BME280;36811;49.732;13.402;2023-02-19T10:51:58;97971.25;;;8.64;97.64
49040;BME280;36811;49.732;13.402;2023-02-19T10:54:33;97979.00;;;8.82;98.96
49040;BME280;36811;49.732;13.402;2023-02-19T11:00:18;97972.84;;;9.43;97.31
49040;BME280;36811;49.732;13.402;2023-02-19T11:02:47;97973.06;;;9.96;96.52
49040;BME280;36811;49.732;13.402;2023-02-19T11:05:18;97976.66;;;10.55;94.84
49040;BME280;36811;49.732;13.402;2023-02-19T11:07:47;97972.59;;;11.01;91.15
49040;BME280;36811;49.732;13.402;2023-02-19T11:10:26;97974.88;;;10.88;88.61
49040;BME280;36811;49.732;13.402;2023-02-19T11:12:56;97974.38;;;10.64;87.89
49040;BME280;36811;49.732;13.402;2023-02-19T11:15:36;97980.91;;;10.51;86.16
49040;BME280;36811;49.732;13.402;2023-02-19T11:20:44;97982.00;;;10.82;84.82
49040;BME280;36811;49.732;13.402;2023-02-19T11:23:16;97973.59;;;10.90;83.33
49040;BME280;36811;49.732;13.402;2023-02-19T11:25:47;97986.66;;;11.28;80.66
49040;BME280;36811;49.732;13.402;2023-02-19T11:28:38;97979.41;;;11.56;83.27
49040;BME280;36811;49.732;13.402;2023-02-19T11:31:27;97978.78;;;11.75;80.15
49040;BME280;36811;49.732;13.402;2023-02-19T11:33:57;97980.94;;;11.83;80.90
49040;BME280;36811;49.732;13.402;2023-02-19T11:36:36;97987.69;;;11.96;81.05
49040;BME280;36811;49.732;13.402;2023-02-19T11:39:19;97984.88;;;11.71;78.79
49040;BME280;36811;49.732;13.402;2023-02-19T11:41:55;97992.84;;;11.34;78.61
49040;BME280;36811;49.732;13.402;2023-02-19T11:50:28;98000.78;;;10.97;79.40
49040;BME280;36811;49.732;13.402;2023-02-19T11:53:20;98003.00;;;11.05;78.07
49040;BME280;36811;49.732;13.402;2023-02-19T11:59:04;98004.44;;;11.55;75.12
49040;BME280;36811;49.732;13.402;2023-02-19T12:09:46;98001.94;;;11.75;74.81
49040;BME280;36811;49.732;13.402;2023-02-19T12:18:18;97997.75;;;12.41;73.74
49040;BME280;36811;49.732;13.402;2023-02-19T12:21:09;98010.06;;;12.52;71.96
49040;BME280;36811;49.732;13.402;2023-02-19T12:29:41;98048.66;;;11.51;74.15
49040;BME280;36811;49.732;13.402;2023-02-19T12:32:24;98070.50;;;10.51;75.10
49040;BME280;36811;49.732;13.402;2023-02-19T12:37:50;98051.28;;;7.86;100.00
49040;BME280;36811;49.732;13.402;2023-02-19T12:40:45;98011.81;;;7.38;100.00
49040;BME280;36811;49.732;13.402;2023-02-19T12:43:19;98000.50;;;7.08;100.00
49040;BME280;36811;49.732;13.402;2023-02-19T12:51:52;97975.72;;;6.91;100.00
49040;BME280;36811;49.732;13.402;2023-02-19T12:54:40;97986.56;;;7.01;100.00
49040;BME280;36811;49.732;13.402;2023-02-19T12:57:12;97983.59;;;7.09;100.00
49040;BME280;36811;49.732;13.402;2023-02-19T12:59:56;97991.31;;;7.11;100.00
49040;BME280;36811;49.732;13.402;2023-02-19T13:02:38;97984.06;;;7.18;100.00
49040;BME280;36811;49.732;13.402;2023-02-19T13:05:51;97987.03;;;7.21;100.00
49040;BME280;36811;49.732;13.402;2023-02-19T13:08:39;98025.25;;;7.25;100.00
49040;BME280;36811;49.732;13.402;2023-02-19T13:11:28;98073.94;;;7.36;100.00
49040;BME280;36811;49.732;13.402;2023-02-19T13:13:59;98093.03;;;7.49;100.00
49040;BME280;36811;49.732;13.402;2023-02-19T13:16:28;98108.03;;;7.67;100.00
49040;BME280;36811;49.732;13.402;2023-02-19T13:19:03;98125.88;;;7.72;100.00
49040;BME280;36811;49.732;13.402;2023-02-19T13:21:32;98136.94;;;7.68;100.00
49040;BME280;36811;49.732;13.402;2023-02-19T13:24:24;98129.78;;;7.69;100.00
49040;BME280;36811;49.732;13.402;2023-02-19T13:27:05;98132.53;;;7.62;100.00
49040;BME280;36811;49.732;13.402;2023-02-19T13:38:02;98145.91;;;7.67;100.00
49040;BME280;36811;49.732;13.402;2023-02-19T13:43:02;98136.97;;;7.92;100.00
49040;BME280;36811;49.732;13.402;2023-02-19T13:45:39;98136.38;;;8.01;100.00
49040;BME280;36811;49.732;13.402;2023-02-19T13:50:41;98132.69;;;8.02;99.99
49040;BME280;36811;49.732;13.402;2023-02-19T14:02:07;98141.81;;;8.06;92.41
49040;BME280;36811;49.732;13.402;2023-02-19T14:17:23;98179.84;;;8.47;90.57
49040;BME280;36811;49.732;13.402;2023-02-19T14:19:51;98183.41;;;8.41;90.52
49040;BME280;36811;49.732;13.402;2023-02-19T14:22:48;98185.13;;;8.35;89.45
49040;BME280;36811;49.732;13.402;2023-02-19T14:25:36;98185.72;;;8.37;86.79
49040;BME280;36811;49.732;13.402;2023-02-19T14:28:27;98189.53;;;8.41;83.31
49040;BME280;36811;49.732;13.402;2023-02-19T14:33:55;98193.78;;;8.42;80.07
49040;BME280;36811;49.732;13.402;2023-02-19T14:39:16;98178.13;;;8.52;78.41
49040;BME280;36811;49.732;13.402;2023-02-19T14:41:47;98200.09;;;8.53;78.00
49040;BME280;36811;49.732;13.402;2023-02-19T14:44:24;98207.59;;;8.56;78.31
49040;BME280;36811;49.732;13.402;2023-02-19T14:46:56;98198.38;;;8.58;77.75
49040;BME280;36811;49.732;13.402;2023-02-19T14:49:30;98205.41;;;8.64;77.76
49040;BME280;36811;49.732;13.402;2023-02-19T14:52:01;98208.06;;;8.64;77.52
49040;BME280;36811;49.732;13.402;2023-02-19T14:54:37;98223.53;;;8.67;78.38
49040;BME280;36811;49.732;13.402;2023-02-19T14:57:09;98224.53;;;8.66;75.50
49040;BME280;36811;49.732;13.402;2023-02-19T14:59:36;98224.53;;;8.66;75.75
49040;BME280;36811;49.732;13.402;2023-02-19T15:02:13;98231.69;;;8.77;76.20
49040;BME280;36811;49.732;13.402;2023-02-19T15:04:40;98232.13;;;8.86;75.38
49040;BME280;36811;49.732;13.402;2023-02-19T15:07:07;98231.91;;;8.87;74.88
49040;BME280;36811;49.732;13.402;2023-02-19T15:09:55;98240.09;;;8.86;75.58
49040;BME280;36811;49.732;13.402;2023-02-19T15:12:25;98241.13;;;8.85;73.76
49040;BME280;36811;49.732;13.402;2023-02-19T15:14:56;98239.50;;;8.84;73.80
49040;BME280;36811;49.732;13.402;2023-02-19T15:17:34;98246.66;;;8.83;73.96
49040;BME280;36811;49.732;13.402;2023-02-19T15:20:09;98238.13;;;8.81;73.21
49040;BME280;36811;49.732;13.402;2023-02-19T15:22:38;98238.38;;;8.80;72.67